createdAt,value
2019-05-20T00:00:22.913Z,1.97
2019-05-20T00:02:49.182Z,1.77
2019-05-20T00:05:15.436Z,1.97
2019-05-20T00:07:41.679Z,2.00
2019-05-20T00:10:08.327Z,1.60
2019-05-20T00:12:34.560Z,1.90
2019-05-20T00:15:00.820Z,1.50
2019-05-20T00:17:27.250Z,1.93
2019-05-20T00:19:53.497Z,1.43
2019-05-20T00:22:19.728Z,2.00
2019-05-20T00:24:45.976Z,1.80
2019-05-20T00:27:12.204Z,1.80
2019-05-20T00:29:38.445Z,1.63
2019-05-20T00:32:04.667Z,1.97
2019-05-20T00:34:35.246Z,1.90
2019-05-20T00:36:58.843Z,2.00
2019-05-20T00:39:25.088Z,1.70
2019-05-20T00:41:51.326Z,1.87
2019-05-20T00:44:18.007Z,1.87
2019-05-20T00:46:44.253Z,1.90
2019-05-20T00:49:10.495Z,1.47
2019-05-20T00:51:36.841Z,1.80
2019-05-20T00:54:03.179Z,1.60
2019-05-20T00:56:29.435Z,1.93
2019-05-20T00:58:55.666Z,1.90
2019-05-20T01:01:21.928Z,1.60
2019-05-20T01:03:48.162Z,1.73
2019-05-20T01:06:14.411Z,2.20
2019-05-20T01:08:40.649Z,2.03
2019-05-20T01:11:06.895Z,2.10
2019-05-20T01:13:33.146Z,1.97
2019-05-20T01:15:59.382Z,2.00
2019-05-20T01:18:25.620Z,1.90
2019-05-20T01:20:52.476Z,1.50
2019-05-20T01:23:18.708Z,2.10
2019-05-20T01:25:44.946Z,1.60
2019-05-20T01:28:11.212Z,2.20
2019-05-20T01:30:37.468Z,2.00
2019-05-20T01:33:13.289Z,1.70
2019-05-20T01:35:31.836Z,1.80
2019-05-20T01:37:58.100Z,1.93
2019-05-20T01:40:24.343Z,1.63
2019-05-20T01:42:52.410Z,1.80
2019-05-20T01:45:18.643Z,1.97
2019-05-20T01:47:44.885Z,2.10
2019-05-20T01:50:11.235Z,1.77
2019-05-20T01:52:37.489Z,1.90
2019-05-20T01:55:08.023Z,2.00
2019-05-20T01:57:34.285Z,2.10
2019-05-20T02:00:00.533Z,1.90
2019-05-20T02:02:26.792Z,2.30
2019-05-20T02:04:53.015Z,1.67
2019-05-20T02:07:19.282Z,2.10
2019-05-20T02:09:45.515Z,2.00
2019-05-20T02:12:11.763Z,2.33
2019-05-20T02:14:51.848Z,1.90
2019-05-20T02:17:18.092Z,1.83
2019-05-20T02:19:44.337Z,1.93
2019-05-20T02:22:10.622Z,1.93
2019-05-20T02:24:36.870Z,1.60
2019-05-20T02:27:03.202Z,2.07
2019-05-20T02:29:29.439Z,1.83
2019-05-20T02:31:55.675Z,1.70
2019-05-20T02:34:21.940Z,1.80
2019-05-20T02:36:48.171Z,2.00
2019-05-20T02:39:14.412Z,2.40
2019-05-20T02:41:40.644Z,2.10
2019-05-20T02:44:06.881Z,2.03
2019-05-20T02:46:33.116Z,1.90
2019-05-20T02:48:59.354Z,2.43
2019-05-20T02:51:31.123Z,2.27
2019-05-20T02:53:58.459Z,1.63
2019-05-20T02:56:24.703Z,1.80
2019-05-20T02:58:50.969Z,2.03
2019-05-20T03:01:17.224Z,2.27
2019-05-20T03:03:43.449Z,1.97
2019-05-20T03:06:09.675Z,1.93
2019-05-20T03:08:35.926Z,1.70
2019-05-20T03:11:02.173Z,1.97
2019-05-20T03:13:28.400Z,2.03
2019-05-20T03:15:54.653Z,1.70
2019-05-20T03:18:20.873Z,2.00
2019-05-20T03:20:47.119Z,1.90
2019-05-20T03:23:13.364Z,1.73
2019-05-20T03:25:39.606Z,1.77
2019-05-20T03:28:05.839Z,1.70
2019-05-20T03:30:32.092Z,2.20
2019-05-20T03:32:58.300Z,2.17
2019-05-20T03:35:24.547Z,2.03
2019-05-20T03:37:50.774Z,2.10
2019-05-20T03:40:17.042Z,2.43
2019-05-20T03:42:43.274Z,2.20
2019-05-20T03:45:10.929Z,2.20
2019-05-20T03:47:37.140Z,1.73
2019-05-20T03:50:06.894Z,2.10
2019-05-20T03:52:33.128Z,2.30
2019-05-20T03:54:59.374Z,2.63
2019-05-20T03:57:25.613Z,2.20
2019-05-20T03:59:52.152Z,1.87
2019-05-20T04:02:18.510Z,1.90
2019-05-20T04:05:00.867Z,1.90
2019-05-20T04:07:12.998Z,2.13
2019-05-20T04:09:39.229Z,2.40
2019-05-20T04:12:05.469Z,2.30
2019-05-20T04:14:31.699Z,2.10
2019-05-20T04:16:57.936Z,3.03
2019-05-20T04:19:24.202Z,2.97
2019-05-20T04:21:50.437Z,3.43
2019-05-20T04:24:16.680Z,3.00
2019-05-20T04:26:42.909Z,3.23
2019-05-20T04:29:09.547Z,3.47
2019-05-20T04:31:36.597Z,3.40
2019-05-20T04:34:02.942Z,3.10
2019-05-20T04:36:29.294Z,2.50
2019-05-20T04:38:56.725Z,2.57
2019-05-20T04:41:22.968Z,2.80
2019-05-20T04:43:49.205Z,2.20
2019-05-20T04:46:15.457Z,2.90
2019-05-20T04:48:41.677Z,2.67
2019-05-20T04:51:07.925Z,2.63
2019-05-20T04:53:34.174Z,2.57
2019-05-20T04:56:00.422Z,2.50
2019-05-20T04:58:26.682Z,2.30
2019-05-20T05:00:54.541Z,2.40
2019-05-20T05:03:21.996Z,2.20
2019-05-20T05:05:49.224Z,2.63
2019-05-20T05:08:16.475Z,2.27
2019-05-20T05:10:42.753Z,2.13
2019-05-20T05:13:09.051Z,1.83
2019-05-20T05:15:35.334Z,1.90
2019-05-20T05:18:01.617Z,1.83
2019-05-20T05:20:28.256Z,1.73
2019-05-20T05:22:54.516Z,1.80
2019-05-20T05:25:20.859Z,1.97
2019-05-20T05:27:47.129Z,1.90
2019-05-20T05:30:13.374Z,2.10
2019-05-20T05:32:42.582Z,1.90
2019-05-20T05:35:13.662Z,1.93
2019-05-20T05:37:40.112Z,2.40
2019-05-20T05:40:08.235Z,1.90
2019-05-20T05:42:34.663Z,2.13
2019-05-20T05:45:00.884Z,2.10
2019-05-20T05:47:27.117Z,2.37
2019-05-20T05:49:53.379Z,2.10
2019-05-20T05:52:22.819Z,1.80
2019-05-20T05:54:47.793Z,2.53
2019-05-20T05:57:14.029Z,2.33
2019-05-20T05:59:40.281Z,2.17
2019-05-20T06:02:06.538Z,1.97
2019-05-20T06:04:32.790Z,1.83
2019-05-20T06:06:59.022Z,2.40
2019-05-20T06:09:25.285Z,2.00
2019-05-20T06:11:51.525Z,1.90
2019-05-20T06:14:17.787Z,2.10
2019-05-20T06:16:44.022Z,2.27
2019-05-20T06:19:10.286Z,2.20
2019-05-20T06:21:36.529Z,1.90
2019-05-20T06:24:02.779Z,2.03
2019-05-20T06:26:29.031Z,2.10
2019-05-20T06:28:55.251Z,2.07
2019-05-20T06:31:21.492Z,1.80
2019-05-20T06:33:47.726Z,2.10
2019-05-20T06:36:26.041Z,2.53
2019-05-20T06:38:43.449Z,2.27
2019-05-20T06:41:09.708Z,2.20
2019-05-20T06:43:35.948Z,2.00
2019-05-20T06:46:02.423Z,1.93
2019-05-20T06:48:28.687Z,2.10
2019-05-20T06:50:54.937Z,2.17
2019-05-20T06:53:21.180Z,2.07
2019-05-20T06:55:47.427Z,1.87
2019-05-20T06:58:13.669Z,2.10
2019-05-20T07:00:40.412Z,2.33
2019-05-20T07:03:06.657Z,1.83
2019-05-20T07:05:33.119Z,1.70
2019-05-20T07:08:01.284Z,2.00
2019-05-20T07:10:27.494Z,2.00
2019-05-20T07:12:53.751Z,2.12
2019-05-20T07:15:20.005Z,2.55
2019-05-20T07:17:46.253Z,2.17
2019-05-20T07:20:12.484Z,2.27
2019-05-20T07:22:54.658Z,2.63
2019-05-20T07:25:06.988Z,1.82
2019-05-20T07:27:33.265Z,2.25
2019-05-20T07:29:59.522Z,2.23
2019-05-20T07:32:25.761Z,1.90
2019-05-20T07:34:51.998Z,2.17
2019-05-20T07:37:18.265Z,2.60
2019-05-20T07:39:44.479Z,2.25
2019-05-20T07:42:10.736Z,1.90
2019-05-20T07:44:36.972Z,2.70
2019-05-20T07:47:03.236Z,2.10
2019-05-20T07:49:29.585Z,2.50
2019-05-20T07:51:56.579Z,1.95
2019-05-20T07:54:23.711Z,2.45
2019-05-20T07:56:53.560Z,1.77
2019-05-20T07:59:22.974Z,2.58
2019-05-20T08:01:49.460Z,2.35
2019-05-20T08:04:15.712Z,2.05
2019-05-20T08:06:41.958Z,2.15
2019-05-20T08:09:08.429Z,2.27
2019-05-20T08:11:34.962Z,2.20
2019-05-20T08:14:01.221Z,2.22
2019-05-20T08:16:27.465Z,3.05
2019-05-20T08:18:53.717Z,2.90
2019-05-20T08:21:19.961Z,2.00
2019-05-20T08:23:50.046Z,2.50
2019-05-20T08:26:14.352Z,2.47
2019-05-20T08:28:40.621Z,2.37
2019-05-20T08:31:06.969Z,2.40
2019-05-20T08:33:33.323Z,1.98
2019-05-20T08:35:59.576Z,2.60
2019-05-20T08:38:25.843Z,2.10
2019-05-20T08:40:52.086Z,2.50
2019-05-20T08:43:18.360Z,2.55
2019-05-20T08:45:44.587Z,1.95
2019-05-20T08:48:10.850Z,2.30
2019-05-20T08:50:37.088Z,2.10
2019-05-20T08:53:03.350Z,2.20
2019-05-20T08:55:30.578Z,2.20
2019-05-20T08:57:56.832Z,2.30
2019-05-20T09:00:24.523Z,2.47
2019-05-20T09:02:51.223Z,2.45
2019-05-20T09:05:17.474Z,2.50
2019-05-20T09:07:43.902Z,2.12
2019-05-20T09:10:10.712Z,2.55
2019-05-20T09:12:36.944Z,2.50
2019-05-20T09:15:06.611Z,2.45
2019-05-20T09:17:32.952Z,2.62
2019-05-20T09:19:59.210Z,2.35
2019-05-20T09:22:25.471Z,2.42
2019-05-20T09:24:51.929Z,2.70
2019-05-20T09:27:18.693Z,2.80
2019-05-20T09:29:45.132Z,2.50
2019-05-20T09:32:11.595Z,2.90
2019-05-20T09:34:38.244Z,2.30
2019-05-20T09:37:04.493Z,2.67
2019-05-20T09:39:30.758Z,2.60
2019-05-20T09:41:57.000Z,2.30
2019-05-20T09:44:23.231Z,2.42
2019-05-20T09:46:49.492Z,2.37
2019-05-20T09:49:15.745Z,2.10
2019-05-20T09:51:41.979Z,2.35
2019-05-20T09:54:08.210Z,2.17
2019-05-20T09:56:34.570Z,2.10
2019-05-20T09:59:00.786Z,2.30
2019-05-20T10:01:27.065Z,2.30
2019-05-20T10:03:53.295Z,2.30
2019-05-20T10:06:19.682Z,2.12
2019-05-20T10:08:45.927Z,2.70
2019-05-20T10:11:12.160Z,2.27
2019-05-20T10:13:38.425Z,2.40
2019-05-20T10:16:04.656Z,2.35
2019-05-20T10:18:37.102Z,2.60
2019-05-20T10:20:59.082Z,2.40
2019-05-20T10:23:25.312Z,2.10
2019-05-20T10:25:51.598Z,2.02
2019-05-20T10:28:17.831Z,2.10
2019-05-20T10:30:44.109Z,2.05
2019-05-20T10:33:10.955Z,1.85
2019-05-20T10:35:37.569Z,2.25
2019-05-20T10:38:03.870Z,2.22
2019-05-20T10:40:30.173Z,1.87
2019-05-20T10:42:56.420Z,2.27
2019-05-20T10:45:22.659Z,2.02
2019-05-20T10:47:48.915Z,2.40
2019-05-20T10:50:15.171Z,2.20
2019-05-20T10:52:41.413Z,1.80
2019-05-20T10:55:08.078Z,1.72
2019-05-20T10:57:34.326Z,1.87
2019-05-20T11:00:00.556Z,1.80
2019-05-20T11:02:31.104Z,1.98
2019-05-20T11:04:54.968Z,1.77
2019-05-20T11:07:21.221Z,1.65
2019-05-20T11:09:47.450Z,1.80
2019-05-20T11:12:13.764Z,1.98
2019-05-20T11:14:39.998Z,1.60
2019-05-20T11:17:06.228Z,1.60
2019-05-20T11:19:32.504Z,1.57
2019-05-20T11:21:58.761Z,1.70
2019-05-20T11:24:25.014Z,1.90
2019-05-20T11:26:51.252Z,1.70
2019-05-20T11:29:17.509Z,1.95
2019-05-20T11:31:43.750Z,1.67
2019-05-20T11:34:09.991Z,1.92
2019-05-20T11:36:36.219Z,2.00
2019-05-20T11:39:07.372Z,1.80
2019-05-20T11:41:52.751Z,1.80
2019-05-20T11:44:01.961Z,1.80
2019-05-20T11:46:28.202Z,1.90
2019-05-20T11:48:54.441Z,1.85
2019-05-20T11:51:20.679Z,1.80
2019-05-20T11:53:47.016Z,2.20
2019-05-20T11:56:13.248Z,2.15
2019-05-20T11:58:39.493Z,1.62
2019-05-20T12:01:05.733Z,2.00
2019-05-20T12:03:32.117Z,1.90
2019-05-20T12:05:58.397Z,1.90
2019-05-20T12:08:24.596Z,1.82
2019-05-20T12:10:50.849Z,1.85
2019-05-20T12:13:17.071Z,1.65
2019-05-20T12:15:43.323Z,2.15
2019-05-20T12:18:09.560Z,1.75
2019-05-20T12:20:35.830Z,2.05
2019-05-20T12:23:02.080Z,1.82
2019-05-20T12:25:28.320Z,2.08
2019-05-20T12:27:54.570Z,2.22
2019-05-20T12:30:21.246Z,2.00
2019-05-20T12:32:47.657Z,1.80
2019-05-20T12:35:14.081Z,1.95
2019-05-20T12:37:40.441Z,2.12
2019-05-20T12:40:08.304Z,2.00
2019-05-20T12:42:35.940Z,2.17
2019-05-20T12:45:04.290Z,1.80
2019-05-20T12:47:30.522Z,2.35
2019-05-20T12:49:56.777Z,1.92
2019-05-20T12:52:23.004Z,2.00
2019-05-20T12:55:06.143Z,2.40
2019-05-20T12:57:17.381Z,2.15
2019-05-20T12:59:43.605Z,2.20
2019-05-20T13:02:09.852Z,2.40
2019-05-20T13:04:36.099Z,1.80
2019-05-20T13:07:02.400Z,1.92
2019-05-20T13:09:28.573Z,2.22
2019-05-20T13:11:54.820Z,1.95
2019-05-20T13:14:21.055Z,2.00
2019-05-20T13:16:47.310Z,1.87
2019-05-20T13:19:13.571Z,2.45
2019-05-20T13:21:39.816Z,2.33
2019-05-20T13:24:06.066Z,2.58
2019-05-20T13:26:32.313Z,1.90
2019-05-20T13:28:59.567Z,2.00
2019-05-20T13:31:26.139Z,2.10
2019-05-20T13:33:52.586Z,2.10
2019-05-20T13:36:18.832Z,2.33
2019-05-20T13:38:45.070Z,1.92
2019-05-20T13:41:11.295Z,1.80
2019-05-20T13:43:37.555Z,2.02
2019-05-20T13:46:03.799Z,2.10
2019-05-20T13:48:30.045Z,2.40
2019-05-20T13:50:56.353Z,2.00
2019-05-20T13:53:22.664Z,2.05
2019-05-20T13:55:48.871Z,2.30
2019-05-20T13:58:15.125Z,2.30
2019-05-20T14:00:41.354Z,2.20
2019-05-20T14:03:07.598Z,1.90
2019-05-20T14:05:33.842Z,2.20
2019-05-20T14:08:00.092Z,2.37
2019-05-20T14:10:26.325Z,2.67
2019-05-20T14:12:52.571Z,2.10
2019-05-20T14:15:18.829Z,2.47
2019-05-20T14:17:45.122Z,2.22
2019-05-20T14:20:11.947Z,2.20
2019-05-20T14:22:40.060Z,2.42
2019-05-20T14:25:06.792Z,2.20
2019-05-20T14:27:33.459Z,2.00
2019-05-20T14:29:59.705Z,1.82
2019-05-20T14:32:25.944Z,2.02
2019-05-20T14:34:52.204Z,1.87
2019-05-20T14:37:18.442Z,2.33
2019-05-20T14:39:44.767Z,2.15
2019-05-20T14:42:13.685Z,2.27
2019-05-20T14:44:40.052Z,2.20
2019-05-20T14:47:06.331Z,2.20
2019-05-20T14:49:32.611Z,2.20
2019-05-20T14:51:58.869Z,2.35
2019-05-20T14:54:25.117Z,2.92
2019-05-20T14:56:51.374Z,2.75
2019-05-20T14:59:17.626Z,2.47
2019-05-20T15:01:43.870Z,2.80
2019-05-20T15:04:10.526Z,1.92
2019-05-20T15:06:36.776Z,2.00
2019-05-20T15:09:04.543Z,2.40
2019-05-20T15:11:38.070Z,2.12
2019-05-20T15:14:00.399Z,2.10
2019-05-20T15:16:26.983Z,2.40
2019-05-20T15:18:53.219Z,2.20
2019-05-20T15:21:19.480Z,2.27
2019-05-20T15:23:45.737Z,2.20
2019-05-20T15:26:11.973Z,2.60
2019-05-20T15:28:38.209Z,2.40
2019-05-20T15:31:05.864Z,2.83
2019-05-20T15:33:32.107Z,2.60
2019-05-20T15:35:58.349Z,2.10
2019-05-20T15:38:24.588Z,2.23
2019-05-20T15:40:50.858Z,2.30
2019-05-20T15:43:17.093Z,2.10
2019-05-20T15:45:43.352Z,2.73
2019-05-20T15:48:09.621Z,2.33
2019-05-20T15:50:35.856Z,2.73
2019-05-20T15:53:02.117Z,2.63
2019-05-20T15:55:28.628Z,2.40
2019-05-20T15:57:54.968Z,2.40
2019-05-20T16:00:21.319Z,2.80
2019-05-20T16:02:47.555Z,2.40
2019-05-20T16:05:13.986Z,2.70
2019-05-20T16:07:40.248Z,2.67
2019-05-20T16:10:07.693Z,2.60
2019-05-20T16:12:34.451Z,2.27
2019-05-20T16:15:00.868Z,2.60
2019-05-20T16:17:27.119Z,2.83
2019-05-20T16:19:53.369Z,2.43
2019-05-20T16:22:19.627Z,2.70
2019-05-20T16:24:45.897Z,2.70
2019-05-20T16:27:12.134Z,2.40
2019-05-20T16:29:38.380Z,2.93
2019-05-20T16:32:04.627Z,2.87
2019-05-20T16:34:30.880Z,2.50
2019-05-20T16:36:57.159Z,2.80
2019-05-20T16:39:23.391Z,2.40
2019-05-20T16:41:49.628Z,2.53
2019-05-20T16:44:15.873Z,2.83
2019-05-20T16:46:42.125Z,2.60
2019-05-20T16:49:08.367Z,2.80
2019-05-20T16:51:34.653Z,2.40
2019-05-20T16:54:00.893Z,2.50
2019-05-20T16:56:27.233Z,2.67
2019-05-20T16:58:53.478Z,2.67
2019-05-20T17:01:19.700Z,2.60
2019-05-20T17:03:45.952Z,2.60
2019-05-20T17:06:12.199Z,2.40
2019-05-20T17:08:38.515Z,2.50
2019-05-20T17:11:04.805Z,2.57
2019-05-20T17:13:31.060Z,2.37
2019-05-20T17:15:57.292Z,2.73
2019-05-20T17:18:23.541Z,2.40
2019-05-20T17:20:49.783Z,2.63
2019-05-20T17:23:16.032Z,2.40
2019-05-20T17:25:42.305Z,2.43
2019-05-20T17:28:08.518Z,2.53
2019-05-20T17:30:45.034Z,2.23
2019-05-20T17:33:03.052Z,2.87
2019-05-20T17:35:29.290Z,2.67
2019-05-20T17:37:55.573Z,2.30
2019-05-20T17:40:21.893Z,2.50
2019-05-20T17:42:48.144Z,2.57
2019-05-20T17:45:15.204Z,2.37
2019-05-20T17:47:41.442Z,3.00
2019-05-20T17:50:08.795Z,3.00
2019-05-20T17:52:35.029Z,3.10
2019-05-20T17:55:01.287Z,2.77
2019-05-20T17:57:27.590Z,2.53
2019-05-20T17:59:53.917Z,2.97
2019-05-20T18:02:20.148Z,2.70
2019-05-20T18:04:46.402Z,2.67
2019-05-20T18:07:12.687Z,2.67
2019-05-20T18:09:40.745Z,2.80
2019-05-20T18:12:06.989Z,2.97
2019-05-20T18:14:33.255Z,3.20
2019-05-20T18:16:59.487Z,2.77
2019-05-20T18:19:25.733Z,2.63
2019-05-20T18:21:51.969Z,2.63
2019-05-20T18:24:18.255Z,2.60
2019-05-20T18:26:44.498Z,2.50
2019-05-20T18:29:10.757Z,2.80
2019-05-20T18:31:36.994Z,2.87
2019-05-20T18:34:03.488Z,2.43
2019-05-20T18:36:29.748Z,2.50
2019-05-20T18:39:00.529Z,2.97
2019-05-20T18:41:26.911Z,3.13
2019-05-20T18:43:53.249Z,3.23
2019-05-20T18:46:19.523Z,2.90
2019-05-20T18:48:45.844Z,2.67
2019-05-20T18:51:12.105Z,2.87
2019-05-20T18:53:38.485Z,2.70
2019-05-20T18:56:04.747Z,2.77
2019-05-20T18:58:31.461Z,3.10
2019-05-20T19:00:58.094Z,3.00
2019-05-20T19:03:24.843Z,3.43
2019-05-20T19:05:53.118Z,3.00
2019-05-20T19:08:19.413Z,2.80
2019-05-20T19:10:45.818Z,2.77
2019-05-20T19:13:12.111Z,3.50
2019-05-20T19:15:38.666Z,3.10
2019-05-20T19:18:04.935Z,3.37
2019-05-20T19:20:31.476Z,3.20
2019-05-20T19:22:57.736Z,2.90
2019-05-20T19:25:37.001Z,2.77
2019-05-20T19:27:52.164Z,2.60
2019-05-20T19:30:18.414Z,2.70
2019-05-20T19:32:44.732Z,2.80
2019-05-20T19:35:11.078Z,2.80
2019-05-20T19:37:38.135Z,2.90
2019-05-20T19:40:05.377Z,2.80
2019-05-20T19:42:31.696Z,3.40
2019-05-20T19:44:57.984Z,3.00
2019-05-20T19:47:24.266Z,3.00
2019-05-20T19:49:50.556Z,3.00
2019-05-20T19:52:16.792Z,3.00
2019-05-20T19:54:43.046Z,2.90
2019-05-20T19:57:09.325Z,3.20
2019-05-20T19:59:35.578Z,3.37
2019-05-20T20:02:15.138Z,3.47
2019-05-20T20:04:29.990Z,3.50
2019-05-20T20:06:56.260Z,3.70
2019-05-20T20:09:22.505Z,3.33
2019-05-20T20:11:48.743Z,3.30
2019-05-20T20:14:15.013Z,3.37
2019-05-20T20:16:41.256Z,3.60
2019-05-20T20:19:07.500Z,3.37
2019-05-20T20:21:33.751Z,3.27
2019-05-20T20:24:00.061Z,3.70
2019-05-20T20:26:26.331Z,3.47
2019-05-20T20:28:52.590Z,3.40
2019-05-20T20:31:18.829Z,3.23
2019-05-20T20:33:45.081Z,3.20
2019-05-20T20:36:11.319Z,3.37
2019-05-20T20:38:37.597Z,3.00
2019-05-20T20:41:03.853Z,3.50
2019-05-20T20:43:32.169Z,3.60
2019-05-20T20:45:58.238Z,3.37
2019-05-20T20:48:24.482Z,3.60
2019-05-20T20:50:50.722Z,3.17
2019-05-20T20:53:16.973Z,4.13
2019-05-20T20:55:43.219Z,3.43
2019-05-20T20:58:09.478Z,3.53
2019-05-20T21:00:35.717Z,4.10
2019-05-20T21:03:01.958Z,3.33
2019-05-20T21:05:28.212Z,4.17
2019-05-20T21:07:54.467Z,4.00
2019-05-20T21:10:20.720Z,3.97
2019-05-20T21:12:46.949Z,4.00
2019-05-20T21:15:13.333Z,3.63
2019-05-20T21:17:39.579Z,4.07
2019-05-20T21:20:05.823Z,4.67
2019-05-20T21:22:32.080Z,5.37
2019-05-20T21:24:58.365Z,4.30
2019-05-20T21:27:24.559Z,4.27
2019-05-20T21:29:50.819Z,5.00
2019-05-20T21:32:17.061Z,4.33
2019-05-20T21:34:43.309Z,4.20
2019-05-20T21:37:09.553Z,4.23
2019-05-20T21:39:35.815Z,5.13
2019-05-20T21:42:02.060Z,4.77
2019-05-20T21:44:28.299Z,5.27
2019-05-20T21:46:54.533Z,5.20
2019-05-20T21:49:20.824Z,5.60
2019-05-20T21:51:47.087Z,5.40
2019-05-20T21:54:13.339Z,4.97
2019-05-20T21:56:39.589Z,4.93
2019-05-20T21:59:05.843Z,4.33
2019-05-20T22:01:32.193Z,6.13
2019-05-20T22:03:58.418Z,6.57
2019-05-20T22:06:24.665Z,5.50
2019-05-20T22:08:50.893Z,6.03
2019-05-20T22:11:17.140Z,5.90
2019-05-20T22:13:43.381Z,6.60
2019-05-20T22:16:09.651Z,5.93
2019-05-20T22:18:35.888Z,5.83
2019-05-20T22:21:02.189Z,5.50
2019-05-20T22:23:39.143Z,6.30
2019-05-20T22:26:05.403Z,7.37
2019-05-20T22:28:31.627Z,7.07
2019-05-20T22:30:58.817Z,6.90
2019-05-20T22:33:39.961Z,7.10
2019-05-20T22:35:54.167Z,6.50
2019-05-20T22:38:20.415Z,6.03
2019-05-20T22:40:46.656Z,6.23
2019-05-20T22:43:12.908Z,6.60
2019-05-20T22:45:39.177Z,6.17
2019-05-20T22:48:05.437Z,6.00
2019-05-20T22:50:31.699Z,7.13
2019-05-20T22:52:57.947Z,7.10
2019-05-20T22:55:24.190Z,7.20
2019-05-20T22:57:50.451Z,7.23
2019-05-20T23:00:16.994Z,7.33
2019-05-20T23:02:43.237Z,6.63
2019-05-20T23:05:09.674Z,7.37
2019-05-20T23:07:35.965Z,6.97
2019-05-20T23:10:03.936Z,8.13
2019-05-20T23:12:30.184Z,7.73
2019-05-20T23:14:56.456Z,7.20
2019-05-20T23:17:22.702Z,6.43
2019-05-20T23:19:48.956Z,7.53
2019-05-20T23:22:15.196Z,8.20
2019-05-20T23:24:41.437Z,9.23
2019-05-20T23:27:07.681Z,8.93
2019-05-20T23:29:33.936Z,8.87
2019-05-20T23:32:00.176Z,10.87
2019-05-20T23:34:26.429Z,10.67
2019-05-20T23:36:52.695Z,8.93
2019-05-20T23:39:18.952Z,11.20
2019-05-20T23:41:45.202Z,10.23
2019-05-20T23:44:11.441Z,9.90
2019-05-20T23:46:37.676Z,10.43
2019-05-20T23:49:03.928Z,11.47
2019-05-20T23:51:30.199Z,10.90
2019-05-20T23:53:56.447Z,10.83
2019-05-20T23:56:22.688Z,10.17
2019-05-20T23:58:48.933Z,10.40
